Time;durP1;ratioP1;P1;durP2;ratioP2;P2;SDS_P1;SDS_P2;PMS_P1;PMS_P2;Temp;Humidity;BMP_temperature;BMP_pressure;BME280_temperature;BME280_humidity;BME280_pressure;Samples;Min_cycle;Max_cycle;Signal;HPM_P1;HPM_P2
2022/08/07 00:00:19;;;;;;;2.70;1.77;;;16.40;77.90;;;;;;4184793;28;20486;-75
2022/08/07 00:02:21;;;;;;;2.57;1.20;;;16.30;80.50;;;;;;4187950;28;20244;-74
2022/08/07 00:04:23;;;;;;;2.60;1.30;;;16.30;81.50;;;;;;4186152;28;20198;-75
2022/08/07 00:06:25;;;;;;;2.30;1.20;;;16.30;91.60;;;;;;4185378;28;20236;-74
2022/08/07 00:08:29;;;;;;;2.93;1.50;;;16.20;77.20;;;;;;4186853;28;20217;-75
2022/08/07 00:10:31;;;;;;;2.37;1.40;;;16.20;88.20;;;;;;4178851;28;20625;-75
2022/08/07 00:12:33;;;;;;;1.90;1.43;;;16.20;90.70;;;;;;4186475;28;20659;-75
2022/08/07 00:14:35;;;;;;;1.97;1.50;;;16.20;89.20;;;;;;4186835;28;20237;-75
2022/08/07 00:16:37;;;;;;;2.20;1.43;;;16.10;77.00;;;;;;4188120;28;20300;-75
2022/08/07 00:18:39;;;;;;;1.70;1.40;;;16.10;77.90;;;;;;4186546;28;20208;-74
2022/08/07 00:20:41;;;;;;;1.93;1.40;;;16.20;80.90;;;;;;4182988;28;20241;-74
2022/08/07 00:22:43;;;;;;;1.23;1.13;;;16.00;72.70;;;;;;4181039;28;20230;-74
2022/08/07 00:24:47;;;;;;;1.33;1.23;;;16.00;81.80;;;;;;4187095;28;20313;-75
2022/08/07 00:26:50;;;;;;;1.83;1.33;;;16.00;77.50;;;;;;4185031;28;20217;-75
2022/08/07 00:28:51;;;;;;;2.80;1.23;;;15.90;72.90;;;;;;4186939;28;20209;-74
2022/08/07 00:30:53;;;;;;;1.27;1.00;;;15.90;79.20;;;;;;4183900;28;20694;-75
2022/08/07 00:32:56;;;;;;;1.33;1.10;;;16.00;78.60;;;;;;4184796;28;20258;-75
2022/08/07 00:34:58;;;;;;;2.20;1.30;;;15.90;88.50;;;;;;4187302;28;20679;-75
2022/08/07 00:36:59;;;;;;;2.40;1.30;;;15.90;83.20;;;;;;4188679;28;20222;-74
2022/08/07 00:39:01;;;;;;;2.50;1.63;;;15.80;82.00;;;;;;4184395;28;20216;-75
2022/08/07 00:41:06;;;;;;;3.57;2.07;;;15.80;85.00;;;;;;4187077;28;20807;-75
2022/08/07 00:43:09;;;;;;;2.67;1.80;;;15.80;87.80;;;;;;4178432;28;20268;-74
2022/08/07 00:45:11;;;;;;;3.93;2.03;;;15.80;89.40;;;;;;4186788;28;20211;-74
2022/08/07 00:47:13;;;;;;;3.13;2.00;;;15.80;92.20;;;;;;4186034;28;20212;-74
2022/08/07 00:49:15;;;;;;;3.10;2.33;;;15.70;92.10;;;;;;4184470;28;20221;-74
2022/08/07 00:51:17;;;;;;;3.93;2.67;;;15.70;94.60;;;;;;4189356;28;20243;-75
2022/08/07 00:53:19;;;;;;;3.57;2.50;;;15.70;95.40;;;;;;4185779;28;20224;-74
2022/08/07 00:55:23;;;;;;;4.67;2.80;;;15.70;94.90;;;;;;4188017;28;20329;-74
2022/08/07 00:57:26;;;;;;;3.80;2.50;;;15.70;93.80;;;;;;4179492;28;20300;-75
2022/08/07 00:59:28;;;;;;;3.43;2.40;;;15.70;99.70;;;;;;4186523;28;20286;-74
2022/08/07 01:01:31;;;;;;;4.10;2.37;;;15.60;98.40;;;;;;4186918;28;20212;-75
2022/08/07 01:03:33;;;;;;;3.33;2.20;;;15.60;97.20;;;;;;4182104;28;20263;-74
2022/08/07 01:05:36;;;;;;;3.77;2.10;;;15.60;97.70;;;;;;4180667;28;20215;-74
2022/08/07 01:07:39;;;;;;;3.40;2.03;;;15.50;99.60;;;;;;4183742;28;20238;-74
2022/08/07 01:09:42;;;;;;;3.67;2.27;;;15.50;99.90;;;;;;4185154;28;20204;-73
2022/08/07 01:11:44;;;;;;;2.70;2.00;;;15.50;98.70;;;;;;4187177;28;20220;-74
2022/08/07 01:13:47;;;;;;;3.50;1.93;;;15.50;99.90;;;;;;4193264;28;20251;-74
2022/08/07 01:15:50;;;;;;;3.97;1.90;;;15.50;99.90;;;;;;4177560;28;20278;-74
2022/08/07 01:17:52;;;;;;;3.10;1.80;;;15.40;98.30;;;;;;4186788;28;20296;-74
2022/08/07 01:19:59;;;;;;;2.57;1.57;;;15.40;98.50;;;;;;4185673;28;20258;-75
2022/08/07 01:22:03;;;;;;;2.37;1.83;;;15.40;99.90;;;;;;4183768;28;20234;-74
2022/08/07 01:24:07;;;;;;;1.93;1.50;;;15.30;97.50;;;;;;4185419;28;20244;-74
2022/08/07 01:26:11;;;;;;;2.27;1.60;;;15.30;96.30;;;;;;4183353;28;20211;-74
2022/08/07 01:28:14;;;;;;;2.37;1.30;;;15.20;97.20;;;;;;4187524;28;20283;-73
2022/08/07 01:30:19;;;;;;;2.93;1.40;;;15.20;99.70;;;;;;4186781;28;20238;-74
2022/08/07 01:32:21;;;;;;;2.90;1.70;;;15.20;99.90;;;;;;4189329;28;20314;-74
2022/08/07 01:34:23;;;;;;;1.63;1.33;;;15.20;99.90;;;;;;4178173;28;20237;-75
2022/08/07 01:36:29;;;;;;;1.80;1.33;;;15.20;99.90;;;;;;4181186;28;20257;-76
2022/08/07 01:38:32;;;;;;;1.77;1.20;;;15.10;98.50;;;;;;4188973;28;20241;-75
2022/08/07 01:40:34;;;;;;;2.43;1.50;;;15.10;99.90;;;;;;4184045;28;20255;-73
2022/08/07 01:42:39;;;;;;;1.97;1.37;;;15.10;99.90;;;;;;4184737;28;20254;-74
2022/08/07 01:44:41;;;;;;;2.97;1.30;;;15.10;99.90;;;;;;4184227;28;20265;-74
2022/08/07 01:46:46;;;;;;;2.67;1.30;;;15.00;99.90;;;;;;4183419;28;20218;-74
2022/08/07 01:48:49;;;;;;;1.73;1.40;;;15.00;99.90;;;;;;4183341;28;20252;-74
2022/08/07 01:50:57;;;;;;;2.90;1.33;;;14.90;99.90;;;;;;4187688;28;20210;-73
2022/08/07 01:53:02;;;;;;;2.00;1.50;;;14.90;99.90;;;;;;4184568;28;20236;-74
2022/08/07 01:55:09;;;;;;;1.53;1.37;;;14.80;98.80;;;;;;4185578;28;20209;-74
2022/08/07 01:57:21;;;;;;;1.40;1.30;;;14.80;99.90;;;;;;4184388;28;20851;-73
2022/08/07 01:59:27;;;;;;;2.07;1.60;;;14.80;99.90;;;;;;4184825;28;20560;-73
2022/08/07 02:01:35;;;;;;;1.90;1.53;;;14.70;99.30;;;;;;4183520;28;20210;-74
2022/08/07 02:03:43;;;;;;;1.67;1.30;;;14.70;99.90;;;;;;4188249;28;20244;-73
2022/08/07 02:05:50;;;;;;;1.80;1.50;;;14.60;99.60;;;;;;4185131;28;20754;-74
2022/08/07 02:07:54;;;;;;;2.10;1.50;;;14.60;99.90;;;;;;4187080;28;20213;-74
2022/08/07 02:09:58;;;;;;;1.97;1.50;;;14.50;99.90;;;;;;4183784;28;20211;-74
2022/08/07 02:12:15;;;;;;;1.67;1.37;;;14.50;99.90;;;;;;4188007;28;20243;-74
2022/08/07 02:14:19;;;;;;;2.00;1.50;;;14.40;99.90;;;;;;4183518;28;20197;-74
2022/08/07 02:16:24;;;;;;;1.50;1.40;;;14.40;99.90;;;;;;4190549;28;20663;-73
2022/08/07 02:18:28;;;;;;;1.67;1.20;;;14.30;99.90;;;;;;4189991;28;20642;-75
2022/08/07 02:20:33;;;;;;;1.50;1.40;;;14.30;99.90;;;;;;4187018;28;20209;-73
2022/08/07 02:22:37;;;;;;;2.07;1.37;;;14.30;99.90;;;;;;4187689;28;20214;-75
2022/08/07 02:24:42;;;;;;;3.47;1.40;;;14.20;99.90;;;;;;4188413;28;20256;-73
2022/08/07 02:26:44;;;;;;;2.17;1.30;;;14.20;99.90;;;;;;4185528;28;20208;-74
2022/08/07 02:28:48;;;;;;;1.30;1.20;;;14.20;99.90;;;;;;4188090;28;20730;-73
2022/08/07 02:30:52;;;;;;;1.63;1.23;;;14.20;99.90;;;;;;4187090;28;20672;-74
2022/08/07 02:32:57;;;;;;;1.57;1.10;;;14.20;99.90;;;;;;4191175;28;20225;-75
2022/08/07 02:35:00;;;;;;;2.07;1.10;;;14.20;99.90;;;;;;4190919;28;20210;-74
2022/08/07 02:37:07;;;;;;;3.23;1.00;;;14.10;99.90;;;;;;4186153;28;20233;-74
2022/08/07 02:39:11;;;;;;;2.07;1.00;;;14.20;99.90;;;;;;4186125;28;20206;-73
2022/08/07 02:41:14;;;;;;;1.17;1.00;;;14.20;99.90;;;;;;4185517;28;20224;-74
2022/08/07 02:43:17;;;;;;;1.07;0.97;;;14.10;99.90;;;;;;4189407;28;20257;-73
2022/08/07 02:45:22;;;;;;;1.00;0.90;;;14.10;99.90;;;;;;4188276;28;20205;-74
2022/08/07 02:47:24;;;;;;;0.80;0.80;;;14.10;99.90;;;;;;4186372;28;20202;-73
2022/08/07 02:49:26;;;;;;;1.20;0.90;;;14.10;99.90;;;;;;4189570;28;20263;-73
2022/08/07 02:51:32;;;;;;;0.70;0.70;;;14.10;99.90;;;;;;4190478;28;20206;-73
2022/08/07 02:53:36;;;;;;;1.23;0.90;;;14.00;99.90;;;;;;4184813;28;20209;-74
2022/08/07 02:55:46;;;;;;;1.20;1.10;;;14.00;99.90;;;;;;4188613;28;20216;-74
2022/08/07 02:57:49;;;;;;;2.40;1.07;;;14.00;99.90;;;;;;4186400;28;20213;-73
2022/08/07 02:59:52;;;;;;;1.97;1.20;;;13.90;99.90;;;;;;4191317;28;20660;-73
2022/08/07 03:01:56;;;;;;;1.40;0.90;;;13.90;99.90;;;;;;4187897;28;20290;-74
2022/08/07 03:03:59;;;;;;;1.43;1.10;;;13.90;99.90;;;;;;4187699;28;20221;-73
2022/08/07 03:06:01;;;;;;;1.33;1.03;;;13.90;99.90;;;;;;4188316;28;20543;-74
2022/08/07 03:08:06;;;;;;;0.93;0.90;;;13.80;99.90;;;;;;4188931;28;20293;-75
2022/08/07 03:10:09;;;;;;;1.27;1.07;;;13.80;99.90;;;;;;4186528;28;20248;-75
2022/08/07 03:12:12;;;;;;;2.77;1.17;;;13.80;99.90;;;;;;4190261;28;20291;-74
2022/08/07 03:14:15;;;;;;;1.77;1.10;;;13.80;99.90;;;;;;4189631;28;20295;-74
2022/08/07 03:16:17;;;;;;;1.23;1.00;;;13.80;99.90;;;;;;4187755;28;20272;-72
2022/08/07 03:18:22;;;;;;;1.27;0.97;;;13.80;99.90;;;;;;4188578;28;20203;-74
2022/08/07 03:20:25;;;;;;;1.50;0.93;;;13.80;99.90;;;;;;4187059;28;20289;-74
2022/08/07 03:22:29;;;;;;;1.40;1.20;;;13.70;99.90;;;;;;4184914;28;20237;-74
2022/08/07 03:24:31;;;;;;;0.87;0.83;;;13.70;99.90;;;;;;4188330;28;20210;-74
2022/08/07 03:26:34;;;;;;;1.23;0.90;;;13.60;99.90;;;;;;4183289;28;20230;-75
2022/08/07 03:28:38;;;;;;;3.20;1.00;;;13.60;99.90;;;;;;4187648;28;20710;-74
2022/08/07 03:30:41;;;;;;;2.23;1.10;;;13.60;99.90;;;;;;4188855;28;21216;-74
2022/08/07 03:32:49;;;;;;;1.10;1.00;;;13.60;99.90;;;;;;4186118;28;20264;-74
2022/08/07 03:34:57;;;;;;;1.13;1.03;;;13.50;99.90;;;;;;4187591;28;20216;-74
2022/08/07 03:37:01;;;;;;;1.40;0.90;;;13.50;99.90;;;;;;4188035;28;20227;-74
2022/08/07 03:39:06;;;;;;;1.57;1.00;;;13.50;99.90;;;;;;4189180;28;21027;-74
2022/08/07 03:41:09;;;;;;;1.50;0.87;;;13.50;99.90;;;;;;4184634;28;20730;-74
2022/08/07 03:43:11;;;;;;;1.23;0.80;;;13.50;99.90;;;;;;4184545;28;20252;-76
2022/08/07 03:45:13;;;;;;;1.47;0.97;;;13.50;99.90;;;;;;4188738;28;20242;-75
2022/08/07 03:47:16;;;;;;;1.13;0.97;;;13.50;99.90;;;;;;4188660;28;20635;-75
2022/08/07 03:49:18;;;;;;;1.23;1.10;;;13.50;99.90;;;;;;4188520;28;20236;-75
2022/08/07 03:51:22;;;;;;;2.40;0.87;;;13.50;99.90;;;;;;4187624;28;20198;-74
2022/08/07 03:53:24;;;;;;;1.23;0.90;;;13.50;99.90;;;;;;4187888;28;20324;-75
2022/08/07 03:55:28;;;;;;;1.40;0.97;;;13.50;99.90;;;;;;4190214;28;20291;-74
2022/08/07 03:57:31;;;;;;;0.97;0.90;;;13.50;99.90;;;;;;4190849;28;20231;-74
2022/08/07 03:59:34;;;;;;;1.27;1.00;;;13.50;99.90;;;;;;4184765;28;20309;-74
2022/08/07 04:01:40;;;;;;;2.37;1.10;;;13.40;99.90;;;;;;4189960;28;20295;-75
2022/08/07 04:03:42;;;;;;;3.10;1.07;;;13.50;99.90;;;;;;4185775;28;20297;-74
2022/08/07 04:05:44;;;;;;;1.63;0.93;;;13.40;99.90;;;;;;4187641;28;20299;-75
2022/08/07 04:07:47;;;;;;;1.50;0.93;;;13.40;99.90;;;;;;4186713;28;20209;-74
2022/08/07 04:09:51;;;;;;;1.50;1.10;;;13.40;99.90;;;;;;4187034;28;20290;-74
2022/08/07 04:11:54;;;;;;;2.27;1.00;;;13.40;99.90;;;;;;4186911;28;20451;-74
2022/08/07 04:13:56;;;;;;;1.57;0.93;;;13.40;99.90;;;;;;4187102;28;20296;-77
2022/08/07 04:15:58;;;;;;;0.93;0.80;;;13.40;99.90;;;;;;4183824;28;20307;-74
2022/08/07 04:18:01;;;;;;;0.87;0.80;;;13.40;99.90;;;;;;4187527;28;20232;-75
2022/08/07 04:20:03;;;;;;;2.23;1.00;;;13.40;99.90;;;;;;4192959;28;21030;-75
2022/08/07 04:22:06;;;;;;;1.40;1.00;;;13.40;99.90;;;;;;4188267;28;20733;-74
2022/08/07 04:24:11;;;;;;;1.10;1.00;;;13.40;99.90;;;;;;4186542;28;20909;-74
2022/08/07 04:26:14;;;;;;;1.43;1.07;;;13.50;99.90;;;;;;4179288;28;20209;-74
2022/08/07 04:28:16;;;;;;;0.83;0.80;;;13.40;99.90;;;;;;4186186;28;20204;-75
2022/08/07 04:30:18;;;;;;;1.13;0.80;;;13.50;99.90;;;;;;4183976;28;20319;-74
2022/08/07 04:32:20;;;;;;;1.50;1.20;;;13.50;99.90;;;;;;4178831;28;20615;-76
2022/08/07 04:34:23;;;;;;;1.10;0.87;;;13.50;99.90;;;;;;4179823;28;20224;-76
2022/08/07 04:36:25;;;;;;;1.10;1.00;;;13.50;99.90;;;;;;4186304;28;20204;-76
2022/08/07 04:38:27;;;;;;;1.90;1.00;;;13.50;99.90;;;;;;4184301;28;20275;-74
2022/08/07 04:40:30;;;;;;;1.90;0.97;;;13.50;99.90;;;;;;4186826;28;20303;-75
2022/08/07 04:42:33;;;;;;;1.33;1.00;;;13.50;99.90;;;;;;4184898;28;20316;-75
2022/08/07 04:44:36;;;;;;;1.57;0.97;;;13.50;99.90;;;;;;4185486;28;20217;-75
2022/08/07 04:46:44;;;;;;;1.07;0.90;;;13.50;99.90;;;;;;4184797;28;20210;-74
2022/08/07 04:48:56;;;;;;;1.20;0.80;;;13.50;99.90;;;;;;4189874;28;20216;-74
2022/08/07 04:51:05;;;;;;;1.03;0.93;;;13.50;99.90;;;;;;4184615;28;20635;-74
2022/08/07 04:53:12;;;;;;;1.20;1.10;;;13.50;99.90;;;;;;4187025;28;20311;-74
2022/08/07 04:55:23;;;;;;;0.83;0.80;;;13.50;99.90;;;;;;4185915;28;20291;-74
2022/08/07 04:57:31;;;;;;;1.00;0.80;;;13.50;99.90;;;;;;4188394;28;20356;-76
2022/08/07 04:59:37;;;;;;;1.20;0.80;;;13.50;99.90;;;;;;4190868;28;20232;-74
2022/08/07 05:01:44;;;;;;;0.80;0.80;;;13.50;99.90;;;;;;4187152;28;20202;-75
2022/08/07 05:03:52;;;;;;;3.30;0.90;;;13.50;99.90;;;;;;4188290;28;20209;-74
2022/08/07 05:06:02;;;;;;;1.20;0.80;;;13.60;99.90;;;;;;4192405;28;20217;-74
2022/08/07 05:08:12;;;;;;;1.07;0.90;;;13.60;99.90;;;;;;4183733;28;20215;-74
2022/08/07 05:10:19;;;;;;;2.07;0.77;;;13.60;99.90;;;;;;4185928;28;20218;-74
2022/08/07 05:12:29;;;;;;;0.87;0.80;;;13.60;99.90;;;;;;4184116;28;20306;-75
2022/08/07 05:14:38;;;;;;;2.37;0.90;;;13.60;99.90;;;;;;4184016;28;20622;-76
2022/08/07 05:16:46;;;;;;;1.60;0.90;;;13.70;99.90;;;;;;4182196;28;20285;-74
2022/08/07 05:18:53;;;;;;;1.17;0.80;;;13.60;99.90;;;;;;4186367;28;20281;-75
2022/08/07 05:20:59;;;;;;;0.80;0.80;;;13.60;99.90;;;;;;4187658;28;20295;-74
2022/08/07 05:23:11;;;;;;;1.60;0.80;;;13.60;99.90;;;;;;4185569;28;20221;-74
2022/08/07 05:25:17;;;;;;;1.30;1.00;;;13.70;99.90;;;;;;4186363;28;20252;-75
2022/08/07 05:27:21;;;;;;;1.63;0.80;;;13.70;99.90;;;;;;4186872;28;20255;-74
2022/08/07 05:29:25;;;;;;;1.27;0.93;;;13.70;99.90;;;;;;4185001;28;20399;-74
2022/08/07 05:31:32;;;;;;;1.20;0.83;;;13.70;99.90;;;;;;4185299;28;20217;-75
2022/08/07 05:33:36;;;;;;;1.03;0.90;;;13.70;99.90;;;;;;4186688;28;20213;-74
2022/08/07 05:35:39;;;;;;;1.10;0.90;;;13.70;99.90;;;;;;4186352;28;20206;-75
2022/08/07 05:37:42;;;;;;;2.13;0.87;;;13.80;99.90;;;;;;4186599;28;20320;-74
2022/08/07 05:39:44;;;;;;;0.97;0.70;;;13.80;99.90;;;;;;4185771;28;20765;-74
2022/08/07 05:41:47;;;;;;;0.93;0.70;;;13.80;99.90;;;;;;4190962;28;20953;-76
2022/08/07 05:43:51;;;;;;;1.07;0.90;;;13.80;99.90;;;;;;4187642;28;20217;-74
2022/08/07 05:45:53;;;;;;;0.80;0.70;;;13.90;99.90;;;;;;4177843;28;20229;-74
2022/08/07 05:47:57;;;;;;;1.33;0.83;;;13.80;99.90;;;;;;4181164;28;20202;-74
2022/08/07 05:50:01;;;;;;;0.83;0.70;;;13.90;99.90;;;;;;4187534;28;20213;-75
2022/08/07 05:52:04;;;;;;;0.80;0.80;;;13.90;99.90;;;;;;4189934;28;20671;-74
2022/08/07 05:54:06;;;;;;;0.87;0.83;;;13.90;99.90;;;;;;4187670;28;20197;-74
2022/08/07 05:56:09;;;;;;;1.33;0.80;;;13.90;99.90;;;;;;4187544;28;20243;-74
2022/08/07 05:58:12;;;;;;;0.90;0.80;;;14.00;99.90;;;;;;4189369;28;20214;-75
2022/08/07 06:00:15;;;;;;;1.20;0.97;;;14.00;99.90;;;;;;4189811;28;20213;-74
2022/08/07 06:02:19;;;;;;;0.87;0.80;;;14.00;99.90;;;;;;4183749;28;20317;-75
2022/08/07 06:04:24;;;;;;;1.17;0.80;;;14.10;99.90;;;;;;4183012;28;20210;-75
2022/08/07 06:06:26;;;;;;;2.10;0.93;;;14.10;99.90;;;;;;4183937;28;20680;-74
2022/08/07 06:08:29;;;;;;;0.70;0.70;;;14.10;99.90;;;;;;4178009;28;20206;-74
2022/08/07 06:10:31;;;;;;;1.03;0.80;;;14.10;99.90;;;;;;4182652;28;20305;-75
2022/08/07 06:12:34;;;;;;;0.80;0.80;;;14.20;99.90;;;;;;4188236;28;20594;-75
2022/08/07 06:14:36;;;;;;;0.70;0.70;;;14.20;99.90;;;;;;4185860;28;20206;-75
2022/08/07 06:16:39;;;;;;;3.60;0.80;;;14.30;99.90;;;;;;4186417;28;21064;-74
2022/08/07 06:18:43;;;;;;;1.30;0.93;;;14.30;99.90;;;;;;4186685;28;20630;-74
2022/08/07 06:20:47;;;;;;;1.43;0.90;;;14.30;99.90;;;;;;4185552;28;20714;-74
2022/08/07 06:22:51;;;;;;;0.90;0.60;;;14.40;99.90;;;;;;4185515;28;20583;-74
2022/08/07 06:24:54;;;;;;;0.83;0.70;;;14.40;99.90;;;;;;4187797;28;20238;-77
2022/08/07 06:26:56;;;;;;;1.27;0.70;;;14.50;99.90;;;;;;4186049;28;20268;-77
2022/08/07 06:28:59;;;;;;;1.43;0.70;;;14.50;99.90;;;;;;4190614;28;20293;-75
2022/08/07 06:31:00;;;;;;;0.70;0.70;;;14.50;99.90;;;;;;4180410;28;20898;-74
2022/08/07 06:33:03;;;;;;;1.47;0.70;;;14.60;99.90;;;;;;4187965;28;20222;-74
2022/08/07 06:35:06;;;;;;;2.00;0.83;;;14.60;99.90;;;;;;4181808;28;20220;-74
2022/08/07 06:37:09;;;;;;;0.70;0.70;;;14.60;99.90;;;;;;4185482;28;20283;-74
2022/08/07 06:39:11;;;;;;;0.90;0.73;;;14.70;99.90;;;;;;4183345;28;20211;-74
2022/08/07 06:41:19;;;;;;;1.37;0.90;;;14.70;99.90;;;;;;4177071;28;20843;-74
2022/08/07 06:43:24;;;;;;;1.20;0.80;;;14.80;99.90;;;;;;4184826;28;20233;-74
2022/08/07 06:45:27;;;;;;;1.20;0.93;;;14.80;99.90;;;;;;4184359;28;20217;-74
2022/08/07 06:47:29;;;;;;;1.00;0.87;;;14.80;99.90;;;;;;4186343;28;20604;-74
2022/08/07 06:49:31;;;;;;;1.23;0.83;;;14.90;99.90;;;;;;4183034;28;20628;-74
2022/08/07 06:51:36;;;;;;;0.60;0.60;;;14.90;99.90;;;;;;4186979;28;20198;-75
2022/08/07 06:53:41;;;;;;;1.03;0.77;;;15.00;99.90;;;;;;4182783;28;20210;-76
2022/08/07 06:55:45;;;;;;;0.73;0.70;;;15.00;99.90;;;;;;4187133;28;20752;-74
2022/08/07 06:57:48;;;;;;;0.80;0.60;;;15.10;99.90;;;;;;4185313;28;20722;-76
2022/08/07 06:59:51;;;;;;;2.40;0.70;;;15.10;99.90;;;;;;4186301;28;20255;-74
2022/08/07 07:01:55;;;;;;;1.30;0.90;;;15.20;99.90;;;;;;4186065;28;20230;-75
2022/08/07 07:03:57;;;;;;;0.63;0.63;;;15.20;99.90;;;;;;4180671;28;20333;-74
2022/08/07 07:05:59;;;;;;;0.93;0.80;;;15.20;99.90;;;;;;4181905;28;20288;-75
2022/08/07 07:08:01;;;;;;;1.17;1.00;;;15.30;99.90;;;;;;4185059;28;20211;-76
2022/08/07 07:10:05;;;;;;;2.17;0.80;;;15.30;99.90;;;;;;4186010;28;20225;-75
2022/08/07 07:12:22;;;;;;;0.80;0.80;;;15.40;99.90;;;;;;4195161;28;20583;-74
2022/08/07 07:14:28;;;;;;;1.07;0.90;;;15.40;99.90;;;;;;4185664;28;20571;-76
2022/08/07 07:16:34;;;;;;;1.37;1.00;;;15.50;99.80;;;;;;4185891;28;20243;-77
2022/08/07 07:18:41;;;;;;;1.00;0.90;;;15.60;99.90;;;;;;4187384;28;20220;-77
2022/08/07 07:20:49;;;;;;;1.50;0.90;;;15.60;99.10;;;;;;4184794;28;20199;-76
2022/08/07 07:22:53;;;;;;;1.90;1.33;;;15.70;98.90;;;;;;4186457;28;20224;-76
2022/08/07 07:24:56;;;;;;;1.43;1.07;;;15.70;98.70;;;;;;4187053;28;20229;-77
2022/08/07 07:27:04;;;;;;;1.47;1.20;;;15.80;97.90;;;;;;4189342;28;20211;-76
2022/08/07 07:29:11;;;;;;;1.60;1.10;;;15.90;99.90;;;;;;4191464;28;20193;-76
2022/08/07 07:31:20;;;;;;;2.67;1.00;;;15.90;95.70;;;;;;4186682;28;20215;-75
2022/08/07 07:33:23;;;;;;;1.50;1.00;;;16.00;98.80;;;;;;4187622;28;20231;-77
2022/08/07 07:35:26;;;;;;;1.90;1.00;;;16.10;97.70;;;;;;4187687;28;20216;-76
2022/08/07 07:37:33;;;;;;;2.37;1.10;;;16.10;97.70;;;;;;4187264;28;20716;-76
2022/08/07 07:39:37;;;;;;;1.60;0.83;;;16.20;95.90;;;;;;4185014;28;20207;-76
2022/08/07 07:41:42;;;;;;;2.27;0.90;;;16.30;96.10;;;;;;4188372;28;20220;-76
2022/08/07 07:43:48;;;;;;;1.20;0.97;;;16.30;95.60;;;;;;4189546;28;20213;-75
2022/08/07 07:45:51;;;;;;;0.80;0.70;;;16.40;96.70;;;;;;4186100;28;20690;-75
2022/08/07 07:47:56;;;;;;;0.93;0.83;;;16.40;94.40;;;;;;4188361;28;20288;-75
2022/08/07 07:49:59;;;;;;;1.33;0.90;;;16.50;92.10;;;;;;4192311;28;20218;-74
2022/08/07 07:52:06;;;;;;;1.00;0.70;;;16.60;92.50;;;;;;4188309;28;20315;-75
2022/08/07 07:54:09;;;;;;;0.90;0.73;;;16.60;92.80;;;;;;4183672;28;20236;-74
2022/08/07 07:56:13;;;;;;;1.10;0.90;;;16.70;92.30;;;;;;4185283;28;20217;-75
2022/08/07 07:58:16;;;;;;;0.90;0.80;;;16.80;91.70;;;;;;4185391;28;20229;-75
2022/08/07 08:00:20;;;;;;;1.03;0.70;;;16.80;93.70;;;;;;4179163;28;20203;-75
2022/08/07 08:02:24;;;;;;;1.23;0.80;;;16.90;91.90;;;;;;4189023;28;20907;-76
2022/08/07 08:04:28;;;;;;;1.03;0.90;;;17.00;89.40;;;;;;4186701;28;20718;-76
2022/08/07 08:06:32;;;;;;;0.80;0.60;;;17.00;89.00;;;;;;4179517;28;20224;-74
2022/08/07 08:08:36;;;;;;;1.57;0.90;;;17.10;86.50;;;;;;4186594;28;20575;-73
2022/08/07 08:10:39;;;;;;;0.87;0.83;;;17.20;85.40;;;;;;4185408;28;20640;-75
2022/08/07 08:12:43;;;;;;;0.80;0.63;;;17.20;83.30;;;;;;4183708;28;20237;-76
2022/08/07 08:14:45;;;;;;;1.27;0.77;;;17.30;84.80;;;;;;4179958;28;20213;-75
2022/08/07 08:16:51;;;;;;;1.30;0.80;;;17.40;82.70;;;;;;4181886;28;20216;-76
2022/08/07 08:18:56;;;;;;;1.23;0.83;;;17.40;81.00;;;;;;4183699;28;20670;-74
2022/08/07 08:21:01;;;;;;;1.53;1.00;;;17.50;82.10;;;;;;4188295;28;20412;-75
2022/08/07 08:27:50;;;;;;;1.53;0.80;;;17.80;67.00;;;;;;4189813;28;20293;-75
2022/08/07 08:29:55;;;;;;;0.93;0.77;;;17.90;67.80;;;;;;4187200;28;20665;-75
2022/08/07 08:32:00;;;;;;;1.07;0.70;;;18.00;69.50;;;;;;4188101;28;20294;-75
2022/08/07 08:34:05;;;;;;;1.10;0.60;;;18.00;64.40;;;;;;4186674;28;20218;-74
2022/08/07 08:36:11;;;;;;;0.70;0.60;;;18.20;64.60;;;;;;4186743;28;20217;-74
2022/08/07 08:38:16;;;;;;;1.37;0.60;;;18.20;62.10;;;;;;4186087;28;20268;-74
2022/08/07 08:40:23;;;;;;;0.87;0.70;;;18.30;56.40;;;;;;4189918;28;20201;-75
2022/08/07 08:42:30;;;;;;;2.40;0.70;;;18.40;59.10;;;;;;4187140;28;20330;-74
2022/08/07 08:44:39;;;;;;;1.30;0.77;;;18.50;57.50;;;;;;4186750;28;20264;-74
2022/08/07 08:46:46;;;;;;;1.80;0.50;;;18.50;58.10;;;;;;4187916;28;20214;-75
2022/08/07 08:48:57;;;;;;;0.53;0.50;;;18.60;56.00;;;;;;4188597;28;20290;-75
2022/08/07 08:51:04;;;;;;;0.87;0.53;;;18.70;58.30;;;;;;4186346;28;20555;-75
2022/08/07 08:53:18;;;;;;;1.10;0.60;;;18.80;54.70;;;;;;4190767;28;20219;-75
2022/08/07 08:55:30;;;;;;;0.63;0.50;;;18.80;53.10;;;;;;4184313;28;20225;-75
2022/08/07 08:57:38;;;;;;;0.40;0.40;;;18.90;53.90;;;;;;4187019;28;20223;-75
2022/08/07 08:59:47;;;;;;;3.90;0.50;;;19.00;53.40;;;;;;4183509;28;20234;-74
2022/08/07 09:01:56;;;;;;;0.63;0.50;;;19.20;52.10;;;;;;4187928;28;20273;-75
2022/08/07 09:04:08;;;;;;;0.30;0.30;;;19.30;53.20;;;;;;4187412;28;20214;-75
2022/08/07 09:06:27;;;;;;;0.30;0.30;;;19.40;52.70;;;;;;4185675;28;20211;-74
2022/08/07 09:08:41;;;;;;;0.73;0.50;;;19.50;51.30;;;;;;4188361;28;20193;-74
2022/08/07 09:10:48;;;;;;;1.47;0.60;;;19.70;52.60;;;;;;4178719;28;20288;-75
2022/08/07 09:12:58;;;;;;;0.50;0.50;;;19.90;51.00;;;;;;4190700;28;20354;-75
2022/08/07 09:15:11;;;;;;;0.73;0.40;;;19.90;51.50;;;;;;4181604;28;20224;-76
2022/08/07 09:17:26;;;;;;;0.40;0.40;;;20.00;52.50;;;;;;4184548;28;20261;-75
2022/08/07 09:19:45;;;;;;;0.40;0.40;;;20.10;49.90;;;;;;4186230;28;20268;-75
2022/08/07 09:21:56;;;;;;;0.37;0.37;;;20.20;49.40;;;;;;4188695;28;20221;-75
2022/08/07 09:24:05;;;;;;;0.40;0.40;;;20.20;48.90;;;;;;4184971;28;20224;-75
2022/08/07 09:26:18;;;;;;;0.57;0.50;;;20.30;49.30;;;;;;4185018;28;20292;-75
2022/08/07 09:28:29;;;;;;;0.50;0.50;;;20.40;49.50;;;;;;4186010;28;20646;-76
2022/08/07 09:30:46;;;;;;;1.13;0.43;;;20.40;47.90;;;;;;4186764;28;20208;-76
2022/08/07 09:33:02;;;;;;;0.30;0.30;;;20.50;48.30;;;;;;4184931;28;20302;-76
2022/08/07 09:35:19;;;;;;;0.40;0.40;;;20.60;47.50;;;;;;4176591;28;20224;-75
2022/08/07 09:37:31;;;;;;;0.63;0.40;;;20.60;47.30;;;;;;4190699;28;20250;-76
2022/08/07 09:39:45;;;;;;;1.13;0.50;;;20.70;46.50;;;;;;4187921;28;20665;-75
2022/08/07 09:42:02;;;;;;;0.50;0.50;;;20.80;46.30;;;;;;4177914;28;20238;-76
2022/08/07 09:44:17;;;;;;;0.40;0.33;;;20.90;45.50;;;;;;4186815;28;20612;-75
2022/08/07 09:46:32;;;;;;;0.57;0.47;;;21.00;45.40;;;;;;4183664;28;20645;-75
2022/08/07 09:48:42;;;;;;;0.60;0.40;;;21.00;40.40;;;;;;4185441;28;20647;-75
2022/08/07 09:50:59;;;;;;;2.10;0.40;;;21.00;42.00;;;;;;4184389;28;20220;-75
2022/08/07 09:53:04;;;;;;;0.77;0.50;;;21.10;43.30;;;;;;4187997;28;20229;-76
2022/08/07 09:55:14;;;;;;;0.60;0.50;;;21.20;43.30;;;;;;4185188;28;20215;-75
2022/08/07 09:57:58;;;;;;;1.80;0.50;;;21.30;43.30;;;;;;4183624;28;20204;-75
2022/08/07 10:00:08;;;;;;;0.97;0.50;;;21.30;42.50;;;;;;4146396;28;20269;-76
2022/08/07 10:02:36;;;;;;;0.87;0.50;;;21.60;41.80;;;;;;4182860;28;20249;-75
2022/08/07 10:05:03;;;;;;;0.80;0.43;;;21.70;42.30;;;;;;4184554;28;20218;-76
2022/08/07 10:07:21;;;;;;;0.40;0.40;;;21.90;41.50;;;;;;4185420;28;20212;-76
2022/08/07 10:09:44;;;;;;;0.60;0.60;;;22.00;41.10;;;;;;4186415;28;20221;-76
2022/08/07 10:12:00;;;;;;;0.93;0.40;;;22.20;39.60;;;;;;4179347;28;20226;-77
2022/08/07 10:14:11;;;;;;;0.53;0.43;;;22.30;38.90;;;;;;4191057;28;20298;-77
2022/08/07 10:16:29;;;;;;;1.13;0.50;;;22.40;39.10;;;;;;4184853;28;20283;-77
2022/08/07 10:19:02;;;;;;;0.40;0.40;;;22.50;38.80;;;;;;4184310;28;20207;-75
2022/08/07 10:21:26;;;;;;;0.50;0.50;;;22.60;39.70;;;;;;4186015;28;20217;-76
2022/08/07 10:23:49;;;;;;;1.17;0.60;;;22.60;39.00;;;;;;4185675;28;20212;-76
2022/08/07 10:26:05;;;;;;;0.47;0.40;;;22.70;38.60;;;;;;4185870;28;20215;-76
2022/08/07 10:28:41;;;;;;;0.83;0.40;;;22.70;38.90;;;;;;4187530;28;20198;-76
2022/08/07 10:30:58;;;;;;;0.70;0.53;;;22.80;39.00;;;;;;4182059;28;20673;-76
2022/08/07 10:33:26;;;;;;;1.60;0.60;;;22.90;39.60;;;;;;4182323;28;20276;-76
2022/08/07 10:35:35;;;;;;;0.60;0.40;;;23.00;39.60;;;;;;4179035;28;20262;-76
2022/08/07 10:37:54;;;;;;;0.90;0.50;;;23.10;39.50;;;;;;4184892;28;20210;-75
2022/08/07 10:40:03;;;;;;;0.50;0.47;;;23.20;39.10;;;;;;4189585;28;20231;-76
2022/08/07 10:42:19;;;;;;;1.80;0.70;;;23.30;39.20;;;;;;4189782;28;20241;-76
2022/08/07 10:44:41;;;;;;;0.50;0.50;;;23.40;37.80;;;;;;4186448;28;20212;-75
2022/08/07 10:46:52;;;;;;;1.63;0.60;;;23.50;36.70;;;;;;4185134;28;20227;-76
2022/08/07 10:49:02;;;;;;;2.17;0.73;;;23.60;36.20;;;;;;4188566;28;20205;-76
2022/08/07 10:51:09;;;;;;;0.63;0.50;;;23.70;37.00;;;;;;4188335;28;20210;-76
2022/08/07 10:53:20;;;;;;;0.93;0.50;;;23.80;36.10;;;;;;4190217;28;20233;-76
2022/08/07 10:55:29;;;;;;;0.57;0.53;;;23.90;35.70;;;;;;4191409;28;20651;-76
2022/08/07 10:57:38;;;;;;;0.70;0.60;;;24.00;35.80;;;;;;4185600;28;20284;-76
2022/08/07 10:59:58;;;;;;;0.73;0.60;;;24.10;35.70;;;;;;4189044;28;20274;-76
2022/08/07 11:02:09;;;;;;;0.97;0.43;;;24.20;35.70;;;;;;4188395;28;20776;-76